sensor_id;sensor_type;location;lat;lon;timestamp;P1;durP1;ratioP1;P2;durP2;ratioP2
11504;SDS011;5809;53.262;10.408;2022-10-16T00:01:26;7.65;;;6.95;;
11504;SDS011;5809;53.262;10.408;2022-10-16T00:03:54;8.82;;;7.10;;
11504;SDS011;5809;53.262;10.408;2022-10-16T00:06:21;7.60;;;6.78;;
11504;SDS011;5809;53.262;10.408;2022-10-16T00:08:49;7.25;;;6.57;;
11504;SDS011;5809;53.262;10.408;2022-10-16T00:11:17;10.48;;;6.82;;
11504;SDS011;5809;53.262;10.408;2022-10-16T00:13:47;8.15;;;5.78;;
11504;SDS011;5809;53.262;10.408;2022-10-16T00:16:16;6.55;;;6.00;;
11504;SDS011;5809;53.262;10.408;2022-10-16T00:18:45;7.03;;;6.25;;
11504;SDS011;5809;53.262;10.408;2022-10-16T00:21:13;7.68;;;6.10;;
11504;SDS011;5809;53.262;10.408;2022-10-16T00:23:42;6.85;;;6.22;;
11504;SDS011;5809;53.262;10.408;2022-10-16T00:26:10;6.95;;;6.25;;
11504;SDS011;5809;53.262;10.408;2022-10-16T00:28:42;6.97;;;6.20;;
11504;SDS011;5809;53.262;10.408;2022-10-16T00:31:12;7.15;;;6.38;;
11504;SDS011;5809;53.262;10.408;2022-10-16T00:33:39;7.10;;;6.40;;
11504;SDS011;5809;53.262;10.408;2022-10-16T00:36:09;8.73;;;6.47;;
11504;SDS011;5809;53.262;10.408;2022-10-16T00:38:37;7.55;;;6.05;;
11504;SDS011;5809;53.262;10.408;2022-10-16T00:41:05;7.85;;;6.30;;
11504;SDS011;5809;53.262;10.408;2022-10-16T00:43:34;7.38;;;5.72;;
11504;SDS011;5809;53.262;10.408;2022-10-16T00:46:04;6.85;;;5.70;;
11504;SDS011;5809;53.262;10.408;2022-10-16T00:48:35;7.65;;;5.57;;
11504;SDS011;5809;53.262;10.408;2022-10-16T00:51:02;8.82;;;5.75;;
11504;SDS011;5809;53.262;10.408;2022-10-16T00:53:33;6.50;;;5.20;;
11504;SDS011;5809;53.262;10.408;2022-10-16T00:56:01;8.88;;;5.90;;
11504;SDS011;5809;53.262;10.408;2022-10-16T00:58:28;5.20;;;4.70;;
11504;SDS011;5809;53.262;10.408;2022-10-16T01:00:55;5.30;;;4.75;;
11504;SDS011;5809;53.262;10.408;2022-10-16T01:03:23;7.35;;;4.63;;
11504;SDS011;5809;53.262;10.408;2022-10-16T01:05:54;5.70;;;4.35;;
11504;SDS011;5809;53.262;10.408;2022-10-16T01:08:38;4.18;;;3.65;;
11504;SDS011;5809;53.262;10.408;2022-10-16T01:11:15;5.28;;;4.05;;
11504;SDS011;5809;53.262;10.408;2022-10-16T01:13:47;4.68;;;3.90;;
11504;SDS011;5809;53.262;10.408;2022-10-16T01:16:20;5.72;;;3.42;;
11504;SDS011;5809;53.262;10.408;2022-10-16T01:18:57;5.47;;;3.10;;
11504;SDS011;5809;53.262;10.408;2022-10-16T01:21:29;3.72;;;2.65;;
11504;SDS011;5809;53.262;10.408;2022-10-16T01:24:01;3.45;;;3.08;;
11504;SDS011;5809;53.262;10.408;2022-10-16T01:26:39;3.17;;;2.67;;
11504;SDS011;5809;53.262;10.408;2022-10-16T01:29:30;2.83;;;2.40;;
11504;SDS011;5809;53.262;10.408;2022-10-16T01:32:02;4.53;;;2.60;;
11504;SDS011;5809;53.262;10.408;2022-10-16T01:34:33;2.88;;;2.35;;
11504;SDS011;5809;53.262;10.408;2022-10-16T01:37:05;3.00;;;2.30;;
11504;SDS011;5809;53.262;10.408;2022-10-16T01:39:36;3.38;;;2.28;;
11504;SDS011;5809;53.262;10.408;2022-10-16T01:42:07;5.25;;;2.60;;
11504;SDS011;5809;53.262;10.408;2022-10-16T01:44:40;3.90;;;2.42;;
11504;SDS011;5809;53.262;10.408;2022-10-16T01:47:08;3.90;;;2.30;;
11504;SDS011;5809;53.262;10.408;2022-10-16T01:49:37;6.35;;;2.60;;
11504;SDS011;5809;53.262;10.408;2022-10-16T01:52:07;3.72;;;2.20;;
11504;SDS011;5809;53.262;10.408;2022-10-16T01:54:36;3.45;;;2.08;;
11504;SDS011;5809;53.262;10.408;2022-10-16T01:57:06;7.03;;;2.25;;
11504;SDS011;5809;53.262;10.408;2022-10-16T01:59:35;5.70;;;2.20;;
11504;SDS011;5809;53.262;10.408;2022-10-16T02:02:09;4.53;;;2.10;;
11504;SDS011;5809;53.262;10.408;2022-10-16T02:04:38;3.30;;;1.70;;
11504;SDS011;5809;53.262;10.408;2022-10-16T02:07:08;4.10;;;1.80;;
11504;SDS011;5809;53.262;10.408;2022-10-16T02:09:36;2.95;;;1.90;;
11504;SDS011;5809;53.262;10.408;2022-10-16T02:12:05;5.50;;;1.90;;
11504;SDS011;5809;53.262;10.408;2022-10-16T02:14:36;4.40;;;1.73;;
11504;SDS011;5809;53.262;10.408;2022-10-16T02:17:11;3.00;;;1.90;;
11504;SDS011;5809;53.262;10.408;2022-10-16T02:19:38;3.13;;;1.60;;
11504;SDS011;5809;53.262;10.408;2022-10-16T02:22:07;4.20;;;2.10;;
11504;SDS011;5809;53.262;10.408;2022-10-16T02:24:38;3.45;;;1.90;;
11504;SDS011;5809;53.262;10.408;2022-10-16T02:27:07;3.55;;;2.08;;
11504;SDS011;5809;53.262;10.408;2022-10-16T02:29:39;2.03;;;1.70;;
11504;SDS011;5809;53.262;10.408;2022-10-16T02:32:11;2.75;;;1.50;;
11504;SDS011;5809;53.262;10.408;2022-10-16T02:34:41;2.85;;;1.50;;
11504;SDS011;5809;53.262;10.408;2022-10-16T02:37:09;2.25;;;1.52;;
11504;SDS011;5809;53.262;10.408;2022-10-16T02:39:37;2.85;;;1.52;;
11504;SDS011;5809;53.262;10.408;2022-10-16T02:42:06;1.58;;;1.38;;
11504;SDS011;5809;53.262;10.408;2022-10-16T02:44:36;3.25;;;1.42;;
11504;SDS011;5809;53.262;10.408;2022-10-16T02:47:03;4.55;;;1.70;;
11504;SDS011;5809;53.262;10.408;2022-10-16T02:49:32;4.65;;;1.50;;
11504;SDS011;5809;53.262;10.408;2022-10-16T02:51:58;2.70;;;1.60;;
11504;SDS011;5809;53.262;10.408;2022-10-16T02:54:26;3.90;;;1.80;;
11504;SDS011;5809;53.262;10.408;2022-10-16T02:56:53;4.60;;;1.80;;
11504;SDS011;5809;53.262;10.408;2022-10-16T02:59:20;2.25;;;1.52;;
11504;SDS011;5809;53.262;10.408;2022-10-16T03:01:47;4.45;;;1.40;;
11504;SDS011;5809;53.262;10.408;2022-10-16T03:04:14;4.03;;;1.48;;
11504;SDS011;5809;53.262;10.408;2022-10-16T03:06:42;4.65;;;1.48;;
11504;SDS011;5809;53.262;10.408;2022-10-16T03:09:09;3.13;;;1.38;;
11504;SDS011;5809;53.262;10.408;2022-10-16T03:11:36;3.45;;;1.70;;
11504;SDS011;5809;53.262;10.408;2022-10-16T03:14:03;6.53;;;1.50;;
11504;SDS011;5809;53.262;10.408;2022-10-16T03:16:30;8.82;;;1.50;;
11504;SDS011;5809;53.262;10.408;2022-10-16T03:18:57;5.22;;;1.90;;
11504;SDS011;5809;53.262;10.408;2022-10-16T03:21:25;6.82;;;1.98;;
11504;SDS011;5809;53.262;10.408;2022-10-16T03:23:53;2.58;;;1.75;;
11504;SDS011;5809;53.262;10.408;2022-10-16T03:26:20;3.88;;;1.40;;
11504;SDS011;5809;53.262;10.408;2022-10-16T03:28:47;2.90;;;1.70;;
11504;SDS011;5809;53.262;10.408;2022-10-16T03:31:14;5.80;;;1.73;;
11504;SDS011;5809;53.262;10.408;2022-10-16T03:33:41;3.22;;;1.70;;
11504;SDS011;5809;53.262;10.408;2022-10-16T03:36:09;2.05;;;1.50;;
11504;SDS011;5809;53.262;10.408;2022-10-16T03:38:36;5.93;;;1.60;;
11504;SDS011;5809;53.262;10.408;2022-10-16T03:41:04;2.17;;;1.60;;
11504;SDS011;5809;53.262;10.408;2022-10-16T03:43:32;1.73;;;1.48;;
11504;SDS011;5809;53.262;10.408;2022-10-16T03:45:59;6.10;;;1.70;;
11504;SDS011;5809;53.262;10.408;2022-10-16T03:48:27;4.40;;;1.70;;
11504;SDS011;5809;53.262;10.408;2022-10-16T03:50:54;3.83;;;1.63;;
11504;SDS011;5809;53.262;10.408;2022-10-16T03:53:21;2.95;;;1.70;;
11504;SDS011;5809;53.262;10.408;2022-10-16T03:55:48;3.25;;;1.50;;
11504;SDS011;5809;53.262;10.408;2022-10-16T03:58:17;4.10;;;1.60;;
11504;SDS011;5809;53.262;10.408;2022-10-16T04:00:45;6.03;;;1.80;;
11504;SDS011;5809;53.262;10.408;2022-10-16T04:03:12;3.65;;;1.40;;
11504;SDS011;5809;53.262;10.408;2022-10-16T04:05:39;2.67;;;1.70;;
11504;SDS011;5809;53.262;10.408;2022-10-16T04:08:07;4.75;;;1.67;;
11504;SDS011;5809;53.262;10.408;2022-10-16T04:10:34;3.83;;;1.77;;
11504;SDS011;5809;53.262;10.408;2022-10-16T04:13:01;2.72;;;1.55;;
11504;SDS011;5809;53.262;10.408;2022-10-16T04:15:30;4.45;;;1.85;;
11504;SDS011;5809;53.262;10.408;2022-10-16T04:17:57;4.07;;;1.70;;
11504;SDS011;5809;53.262;10.408;2022-10-16T04:20:24;3.45;;;1.77;;
11504;SDS011;5809;53.262;10.408;2022-10-16T04:22:51;2.65;;;1.90;;
11504;SDS011;5809;53.262;10.408;2022-10-16T04:25:19;3.42;;;1.85;;
11504;SDS011;5809;53.262;10.408;2022-10-16T04:27:45;2.95;;;1.90;;
11504;SDS011;5809;53.262;10.408;2022-10-16T04:30:13;4.88;;;2.15;;
11504;SDS011;5809;53.262;10.408;2022-10-16T04:32:41;4.60;;;2.05;;
11504;SDS011;5809;53.262;10.408;2022-10-16T04:35:09;5.18;;;1.90;;
11504;SDS011;5809;53.262;10.408;2022-10-16T04:37:36;7.47;;;2.60;;
11504;SDS011;5809;53.262;10.408;2022-10-16T04:40:04;5.43;;;1.80;;
11504;SDS011;5809;53.262;10.408;2022-10-16T04:42:31;5.20;;;2.03;;
11504;SDS011;5809;53.262;10.408;2022-10-16T04:44:58;3.50;;;1.77;;
11504;SDS011;5809;53.262;10.408;2022-10-16T04:47:25;3.13;;;2.10;;
11504;SDS011;5809;53.262;10.408;2022-10-16T04:49:53;8.13;;;2.30;;
11504;SDS011;5809;53.262;10.408;2022-10-16T04:52:21;5.50;;;2.13;;
11504;SDS011;5809;53.262;10.408;2022-10-16T04:54:49;6.68;;;2.10;;
11504;SDS011;5809;53.262;10.408;2022-10-16T04:57:17;3.50;;;2.17;;
11504;SDS011;5809;53.262;10.408;2022-10-16T04:59:44;5.72;;;1.92;;
11504;SDS011;5809;53.262;10.408;2022-10-16T05:02:11;4.60;;;1.80;;
11504;SDS011;5809;53.262;10.408;2022-10-16T05:04:38;3.70;;;2.05;;
11504;SDS011;5809;53.262;10.408;2022-10-16T05:07:07;4.90;;;1.90;;
11504;SDS011;5809;53.262;10.408;2022-10-16T05:09:34;3.40;;;2.05;;
11504;SDS011;5809;53.262;10.408;2022-10-16T05:12:01;4.90;;;2.40;;
11504;SDS011;5809;53.262;10.408;2022-10-16T05:14:28;4.20;;;1.92;;
11504;SDS011;5809;53.262;10.408;2022-10-16T05:16:55;6.05;;;2.03;;
11504;SDS011;5809;53.262;10.408;2022-10-16T05:19:23;6.32;;;2.10;;
11504;SDS011;5809;53.262;10.408;2022-10-16T05:21:50;2.78;;;2.20;;
11504;SDS011;5809;53.262;10.408;2022-10-16T05:24:18;16.23;;;2.50;;
11504;SDS011;5809;53.262;10.408;2022-10-16T05:26:45;2.80;;;1.80;;
11504;SDS011;5809;53.262;10.408;2022-10-16T05:29:13;4.00;;;2.30;;
11504;SDS011;5809;53.262;10.408;2022-10-16T05:31:40;4.47;;;2.30;;
11504;SDS011;5809;53.262;10.408;2022-10-16T05:34:07;3.83;;;2.25;;
11504;SDS011;5809;53.262;10.408;2022-10-16T05:36:34;4.03;;;2.30;;
11504;SDS011;5809;53.262;10.408;2022-10-16T05:39:02;4.68;;;2.47;;
11504;SDS011;5809;53.262;10.408;2022-10-16T05:41:30;3.85;;;2.22;;
11504;SDS011;5809;53.262;10.408;2022-10-16T05:43:58;4.13;;;2.20;;
11504;SDS011;5809;53.262;10.408;2022-10-16T05:46:25;4.13;;;2.20;;
11504;SDS011;5809;53.262;10.408;2022-10-16T05:48:52;2.38;;;1.98;;
11504;SDS011;5809;53.262;10.408;2022-10-16T05:51:19;4.30;;;2.05;;
11504;SDS011;5809;53.262;10.408;2022-10-16T05:53:46;2.88;;;2.38;;
11504;SDS011;5809;53.262;10.408;2022-10-16T05:56:13;7.18;;;2.30;;
11504;SDS011;5809;53.262;10.408;2022-10-16T05:58:42;3.55;;;1.98;;
11504;SDS011;5809;53.262;10.408;2022-10-16T06:01:10;3.88;;;2.15;;
11504;SDS011;5809;53.262;10.408;2022-10-16T06:03:38;8.75;;;2.47;;
11504;SDS011;5809;53.262;10.408;2022-10-16T06:06:08;6.43;;;2.40;;
11504;SDS011;5809;53.262;10.408;2022-10-16T06:08:36;6.85;;;2.22;;
11504;SDS011;5809;53.262;10.408;2022-10-16T06:11:04;5.13;;;2.40;;
11504;SDS011;5809;53.262;10.408;2022-10-16T06:13:32;5.57;;;2.07;;
11504;SDS011;5809;53.262;10.408;2022-10-16T06:16:01;3.03;;;2.20;;
11504;SDS011;5809;53.262;10.408;2022-10-16T06:18:28;5.57;;;2.50;;
11504;SDS011;5809;53.262;10.408;2022-10-16T06:20:56;4.00;;;2.47;;
11504;SDS011;5809;53.262;10.408;2022-10-16T06:23:23;4.88;;;1.98;;
11504;SDS011;5809;53.262;10.408;2022-10-16T06:25:50;3.50;;;2.08;;
11504;SDS011;5809;53.262;10.408;2022-10-16T06:28:17;4.18;;;2.13;;
11504;SDS011;5809;53.262;10.408;2022-10-16T06:30:44;5.18;;;2.10;;
11504;SDS011;5809;53.262;10.408;2022-10-16T06:33:13;3.53;;;2.15;;
11504;SDS011;5809;53.262;10.408;2022-10-16T06:35:40;4.20;;;2.13;;
11504;SDS011;5809;53.262;10.408;2022-10-16T06:38:07;4.35;;;2.20;;
11504;SDS011;5809;53.262;10.408;2022-10-16T06:40:34;7.18;;;2.30;;
11504;SDS011;5809;53.262;10.408;2022-10-16T06:43:01;3.85;;;2.28;;
11504;SDS011;5809;53.262;10.408;2022-10-16T06:45:28;6.20;;;2.38;;
11504;SDS011;5809;53.262;10.408;2022-10-16T06:47:55;5.22;;;2.15;;
11504;SDS011;5809;53.262;10.408;2022-10-16T06:50:24;5.75;;;2.30;;
11504;SDS011;5809;53.262;10.408;2022-10-16T06:52:50;2.90;;;2.03;;
11504;SDS011;5809;53.262;10.408;2022-10-16T06:55:18;4.43;;;2.53;;
11504;SDS011;5809;53.262;10.408;2022-10-16T06:57:46;5.47;;;2.20;;
11504;SDS011;5809;53.262;10.408;2022-10-16T07:00:14;5.28;;;2.25;;
11504;SDS011;5809;53.262;10.408;2022-10-16T07:02:41;5.18;;;2.70;;
11504;SDS011;5809;53.262;10.408;2022-10-16T07:05:08;6.10;;;2.17;;
11504;SDS011;5809;53.262;10.408;2022-10-16T07:07:36;3.50;;;2.20;;
11504;SDS011;5809;53.262;10.408;2022-10-16T07:10:03;6.72;;;2.42;;
11504;SDS011;5809;53.262;10.408;2022-10-16T07:12:31;7.45;;;2.20;;
11504;SDS011;5809;53.262;10.408;2022-10-16T07:14:58;4.47;;;2.35;;
11504;SDS011;5809;53.262;10.408;2022-10-16T07:17:25;6.13;;;2.30;;
11504;SDS011;5809;53.262;10.408;2022-10-16T07:19:52;6.50;;;2.30;;
11504;SDS011;5809;53.262;10.408;2022-10-16T07:22:20;3.38;;;2.20;;
11504;SDS011;5809;53.262;10.408;2022-10-16T07:24:49;4.47;;;2.05;;
11504;SDS011;5809;53.262;10.408;2022-10-16T07:27:16;4.20;;;1.70;;
11504;SDS011;5809;53.262;10.408;2022-10-16T07:29:44;3.42;;;1.70;;
11504;SDS011;5809;53.262;10.408;2022-10-16T07:32:11;4.80;;;1.90;;
11504;SDS011;5809;53.262;10.408;2022-10-16T07:34:38;2.33;;;1.80;;
11504;SDS011;5809;53.262;10.408;2022-10-16T07:37:05;6.85;;;2.00;;
11504;SDS011;5809;53.262;10.408;2022-10-16T07:39:32;4.40;;;1.90;;
11504;SDS011;5809;53.262;10.408;2022-10-16T07:42:00;3.35;;;1.92;;
11504;SDS011;5809;53.262;10.408;2022-10-16T07:44:27;3.88;;;2.00;;
11504;SDS011;5809;53.262;10.408;2022-10-16T07:46:54;4.03;;;1.90;;
11504;SDS011;5809;53.262;10.408;2022-10-16T07:49:22;3.28;;;1.77;;
11504;SDS011;5809;53.262;10.408;2022-10-16T07:51:49;3.67;;;1.95;;
11504;SDS011;5809;53.262;10.408;2022-10-16T07:54:16;3.70;;;2.08;;
11504;SDS011;5809;53.262;10.408;2022-10-16T07:56:43;2.33;;;1.48;;
11504;SDS011;5809;53.262;10.408;2022-10-16T07:59:12;3.58;;;1.55;;
11504;SDS011;5809;53.262;10.408;2022-10-16T08:01:39;6.15;;;1.60;;
11504;SDS011;5809;53.262;10.408;2022-10-16T08:04:07;2.15;;;1.58;;
11504;SDS011;5809;53.262;10.408;2022-10-16T08:06:35;3.03;;;1.40;;
11504;SDS011;5809;53.262;10.408;2022-10-16T08:09:02;3.22;;;1.58;;
11504;SDS011;5809;53.262;10.408;2022-10-16T08:11:29;2.88;;;1.55;;
11504;SDS011;5809;53.262;10.408;2022-10-16T08:13:57;2.58;;;1.20;;
11504;SDS011;5809;53.262;10.408;2022-10-16T08:16:25;3.92;;;1.85;;
11504;SDS011;5809;53.262;10.408;2022-10-16T08:18:52;2.60;;;1.40;;
11504;SDS011;5809;53.262;10.408;2022-10-16T08:21:20;2.75;;;1.50;;
11504;SDS011;5809;53.262;10.408;2022-10-16T08:23:48;3.15;;;1.50;;
11504;SDS011;5809;53.262;10.408;2022-10-16T08:26:15;5.38;;;1.67;;
11504;SDS011;5809;53.262;10.408;2022-10-16T08:28:42;3.38;;;1.23;;
11504;SDS011;5809;53.262;10.408;2022-10-16T08:31:10;3.53;;;1.48;;
11504;SDS011;5809;53.262;10.408;2022-10-16T08:33:40;3.08;;;1.45;;
11504;SDS011;5809;53.262;10.408;2022-10-16T08:36:09;3.45;;;1.40;;
11504;SDS011;5809;53.262;10.408;2022-10-16T08:38:36;3.03;;;1.30;;
11504;SDS011;5809;53.262;10.408;2022-10-16T08:41:13;3.58;;;1.42;;
11504;SDS011;5809;53.262;10.408;2022-10-16T08:43:56;5.03;;;1.30;;
11504;SDS011;5809;53.262;10.408;2022-10-16T08:46:37;3.40;;;1.30;;
11504;SDS011;5809;53.262;10.408;2022-10-16T08:49:13;3.72;;;1.58;;
11504;SDS011;5809;53.262;10.408;2022-10-16T08:51:41;2.13;;;1.27;;
11504;SDS011;5809;53.262;10.408;2022-10-16T08:54:12;1.98;;;1.45;;
11504;SDS011;5809;53.262;10.408;2022-10-16T08:56:48;1.52;;;1.40;;
11504;SDS011;5809;53.262;10.408;2022-10-16T08:59:16;6.15;;;1.40;;
11504;SDS011;5809;53.262;10.408;2022-10-16T09:01:45;2.83;;;1.33;;
11504;SDS011;5809;53.262;10.408;2022-10-16T09:04:22;2.50;;;1.30;;
11504;SDS011;5809;53.262;10.408;2022-10-16T09:07:01;5.35;;;1.50;;
11504;SDS011;5809;53.262;10.408;2022-10-16T09:09:38;2.50;;;1.40;;
11504;SDS011;5809;53.262;10.408;2022-10-16T09:12:26;3.92;;;1.17;;
11504;SDS011;5809;53.262;10.408;2022-10-16T09:15:03;3.22;;;1.48;;
11504;SDS011;5809;53.262;10.408;2022-10-16T09:17:42;1.42;;;1.30;;
11504;SDS011;5809;53.262;10.408;2022-10-16T09:20:19;3.33;;;1.35;;
11504;SDS011;5809;53.262;10.408;2022-10-16T09:23:00;1.95;;;1.10;;
11504;SDS011;5809;53.262;10.408;2022-10-16T09:25:46;3.00;;;1.13;;
11504;SDS011;5809;53.262;10.408;2022-10-16T09:28:14;2.72;;;1.10;;
11504;SDS011;5809;53.262;10.408;2022-10-16T09:30:42;4.35;;;1.30;;
11504;SDS011;5809;53.262;10.408;2022-10-16T09:33:10;3.35;;;1.00;;
11504;SDS011;5809;53.262;10.408;2022-10-16T09:35:42;2.08;;;1.20;;
11504;SDS011;5809;53.262;10.408;2022-10-16T09:38:20;3.38;;;1.20;;
11504;SDS011;5809;53.262;10.408;2022-10-16T09:40:48;2.85;;;1.20;;
11504;SDS011;5809;53.262;10.408;2022-10-16T09:43:20;1.90;;;1.00;;
11504;SDS011;5809;53.262;10.408;2022-10-16T09:45:54;1.10;;;0.88;;
11504;SDS011;5809;53.262;10.408;2022-10-16T09:48:22;3.45;;;1.00;;
11504;SDS011;5809;53.262;10.408;2022-10-16T09:50:57;2.65;;;0.90;;
11504;SDS011;5809;53.262;10.408;2022-10-16T09:53:37;2.55;;;0.90;;
11504;SDS011;5809;53.262;10.408;2022-10-16T09:56:06;1.55;;;0.88;;
11504;SDS011;5809;53.262;10.408;2022-10-16T09:58:34;1.92;;;1.00;;
11504;SDS011;5809;53.262;10.408;2022-10-16T10:01:02;2.92;;;1.38;;
11504;SDS011;5809;53.262;10.408;2022-10-16T10:03:36;2.72;;;0.98;;
11504;SDS011;5809;53.262;10.408;2022-10-16T10:06:16;3.08;;;0.90;;
11504;SDS011;5809;53.262;10.408;2022-10-16T10:08:58;2.45;;;1.10;;
11504;SDS011;5809;53.262;10.408;2022-10-16T10:11:42;2.92;;;1.00;;
11504;SDS011;5809;53.262;10.408;2022-10-16T10:14:17;2.72;;;1.10;;
11504;SDS011;5809;53.262;10.408;2022-10-16T10:16:50;2.72;;;1.20;;
11504;SDS011;5809;53.262;10.408;2022-10-16T10:19:19;3.28;;;1.38;;
11504;SDS011;5809;53.262;10.408;2022-10-16T10:21:49;2.88;;;1.23;;
11504;SDS011;5809;53.262;10.408;2022-10-16T10:24:17;2.80;;;1.05;;
11504;SDS011;5809;53.262;10.408;2022-10-16T10:26:48;4.53;;;1.00;;
11504;SDS011;5809;53.262;10.408;2022-10-16T10:29:24;3.63;;;0.90;;
11504;SDS011;5809;53.262;10.408;2022-10-16T10:31:58;2.25;;;1.00;;
11504;SDS011;5809;53.262;10.408;2022-10-16T10:34:40;3.03;;;0.95;;
11504;SDS011;5809;53.262;10.408;2022-10-16T10:37:23;3.33;;;1.00;;
11504;SDS011;5809;53.262;10.408;2022-10-16T10:40:03;3.50;;;1.10;;
11504;SDS011;5809;53.262;10.408;2022-10-16T10:42:37;2.55;;;1.00;;
11504;SDS011;5809;53.262;10.408;2022-10-16T10:48:10;3.05;;;1.17;;
11504;SDS011;5809;53.262;10.408;2022-10-16T10:50:48;1.95;;;0.90;;
11504;SDS011;5809;53.262;10.408;2022-10-16T10:53:24;1.70;;;0.90;;
11504;SDS011;5809;53.262;10.408;2022-10-16T10:56:05;2.55;;;0.80;;
11504;SDS011;5809;53.262;10.408;2022-10-16T10:58:46;2.80;;;0.80;;
11504;SDS011;5809;53.262;10.408;2022-10-16T11:01:22;2.97;;;0.90;;
11504;SDS011;5809;53.262;10.408;2022-10-16T11:07:09;2.13;;;1.00;;
11504;SDS011;5809;53.262;10.408;2022-10-16T11:09:44;2.75;;;0.82;;
11504;SDS011;5809;53.262;10.408;2022-10-16T11:12:14;2.28;;;0.88;;
11504;SDS011;5809;53.262;10.408;2022-10-16T11:14:46;2.15;;;1.00;;
11504;SDS011;5809;53.262;10.408;2022-10-16T11:17:17;3.72;;;1.00;;
11504;SDS011;5809;53.262;10.408;2022-10-16T11:19:51;2.35;;;1.10;;
11504;SDS011;5809;53.262;10.408;2022-10-16T11:22:22;1.83;;;1.05;;
11504;SDS011;5809;53.262;10.408;2022-10-16T11:24:54;1.88;;;0.82;;
11504;SDS011;5809;53.262;10.408;2022-10-16T11:27:30;4.13;;;1.10;;
11504;SDS011;5809;53.262;10.408;2022-10-16T11:30:03;3.22;;;0.80;;
11504;SDS011;5809;53.262;10.408;2022-10-16T11:32:40;4.82;;;0.93;;
11504;SDS011;5809;53.262;10.408;2022-10-16T11:35:17;2.55;;;1.20;;
11504;SDS011;5809;53.262;10.408;2022-10-16T11:37:49;1.67;;;1.00;;
11504;SDS011;5809;53.262;10.408;2022-10-16T11:40:22;3.10;;;0.93;;
11504;SDS011;5809;53.262;10.408;2022-10-16T11:42:54;1.33;;;0.80;;
11504;SDS011;5809;53.262;10.408;2022-10-16T11:45:30;1.65;;;0.98;;
11504;SDS011;5809;53.262;10.408;2022-10-16T11:48:04;2.38;;;0.88;;
11504;SDS011;5809;53.262;10.408;2022-10-16T11:50:40;4.47;;;0.80;;
11504;SDS011;5809;53.262;10.408;2022-10-16T11:53:15;3.45;;;0.82;;
11504;SDS011;5809;53.262;10.408;2022-10-16T11:55:49;3.60;;;1.00;;
11504;SDS011;5809;53.262;10.408;2022-10-16T11:58:20;1.95;;;0.80;;
11504;SDS011;5809;53.262;10.408;2022-10-16T12:00:55;1.67;;;0.90;;
11504;SDS011;5809;53.262;10.408;2022-10-16T12:03:28;2.92;;;0.90;;
11504;SDS011;5809;53.262;10.408;2022-10-16T12:06:07;2.70;;;1.00;;
11504;SDS011;5809;53.262;10.408;2022-10-16T12:08:43;1.15;;;0.80;;
11504;SDS011;5809;53.262;10.408;2022-10-16T12:11:22;1.40;;;0.88;;
11504;SDS011;5809;53.262;10.408;2022-10-16T12:14:03;1.60;;;0.80;;
11504;SDS011;5809;53.262;10.408;2022-10-16T12:16:50;3.67;;;1.10;;
11504;SDS011;5809;53.262;10.408;2022-10-16T12:19:18;3.40;;;1.10;;
11504;SDS011;5809;53.262;10.408;2022-10-16T12:21:46;4.68;;;1.17;;
11504;SDS011;5809;53.262;10.408;2022-10-16T12:24:34;4.63;;;1.08;;
11504;SDS011;5809;53.262;10.408;2022-10-16T12:27:05;2.58;;;0.90;;
11504;SDS011;5809;53.262;10.408;2022-10-16T12:29:47;1.98;;;1.10;;
11504;SDS011;5809;53.262;10.408;2022-10-16T12:32:23;2.85;;;1.00;;
11504;SDS011;5809;53.262;10.408;2022-10-16T12:34:55;2.50;;;1.15;;
11504;SDS011;5809;53.262;10.408;2022-10-16T12:37:23;2.60;;;1.02;;
11504;SDS011;5809;53.262;10.408;2022-10-16T12:39:52;3.25;;;1.10;;
11504;SDS011;5809;53.262;10.408;2022-10-16T12:42:23;3.17;;;0.90;;
11504;SDS011;5809;53.262;10.408;2022-10-16T12:44:59;4.10;;;1.00;;
11504;SDS011;5809;53.262;10.408;2022-10-16T12:47:35;4.38;;;1.27;;
11504;SDS011;5809;53.262;10.408;2022-10-16T12:50:21;3.83;;;1.25;;
11504;SDS011;5809;53.262;10.408;2022-10-16T12:52:50;3.40;;;1.02;;
11504;SDS011;5809;53.262;10.408;2022-10-16T12:55:18;1.58;;;0.98;;
11504;SDS011;5809;53.262;10.408;2022-10-16T12:57:50;3.83;;;1.02;;
11504;SDS011;5809;53.262;10.408;2022-10-16T13:00:42;3.67;;;1.02;;
11504;SDS011;5809;53.262;10.408;2022-10-16T13:06:28;5.47;;;1.17;;
11504;SDS011;5809;53.262;10.408;2022-10-16T13:09:13;2.55;;;1.13;;
11504;SDS011;5809;53.262;10.408;2022-10-16T13:11:56;4.03;;;1.30;;
11504;SDS011;5809;53.262;10.408;2022-10-16T13:14:48;2.88;;;1.00;;
11504;SDS011;5809;53.262;10.408;2022-10-16T13:17:37;2.33;;;1.20;;
11504;SDS011;5809;53.262;10.408;2022-10-16T13:20:13;3.72;;;1.10;;
11504;SDS011;5809;53.262;10.408;2022-10-16T13:22:48;2.20;;;1.10;;
11504;SDS011;5809;53.262;10.408;2022-10-16T13:25:24;3.78;;;1.20;;
11504;SDS011;5809;53.262;10.408;2022-10-16T13:27:59;3.60;;;0.80;;
11504;SDS011;5809;53.262;10.408;2022-10-16T13:30:29;2.72;;;0.95;;
11504;SDS011;5809;53.262;10.408;2022-10-16T13:33:01;2.42;;;1.02;;
11504;SDS011;5809;53.262;10.408;2022-10-16T13:35:33;6.82;;;1.10;;
11504;SDS011;5809;53.262;10.408;2022-10-16T13:40:48;4.55;;;1.00;;
11504;SDS011;5809;53.262;10.408;2022-10-16T13:43:22;4.28;;;1.10;;
11504;SDS011;5809;53.262;10.408;2022-10-16T13:45:54;3.15;;;1.10;;
11504;SDS011;5809;53.262;10.408;2022-10-16T13:48:26;2.85;;;0.95;;
11504;SDS011;5809;53.262;10.408;2022-10-16T13:51:00;2.15;;;0.93;;
11504;SDS011;5809;53.262;10.408;2022-10-16T13:53:30;4.88;;;1.20;;
11504;SDS011;5809;53.262;10.408;2022-10-16T13:55:58;2.30;;;0.98;;
11504;SDS011;5809;53.262;10.408;2022-10-16T13:58:26;4.25;;;1.30;;
11504;SDS011;5809;53.262;10.408;2022-10-16T14:00:55;7.07;;;1.20;;
11504;SDS011;5809;53.262;10.408;2022-10-16T14:03:24;2.63;;;0.98;;
11504;SDS011;5809;53.262;10.408;2022-10-16T14:05:53;2.80;;;1.08;;
11504;SDS011;5809;53.262;10.408;2022-10-16T14:08:23;2.72;;;1.17;;
11504;SDS011;5809;53.262;10.408;2022-10-16T14:10:52;2.40;;;1.10;;
11504;SDS011;5809;53.262;10.408;2022-10-16T14:13:24;1.77;;;0.90;;
11504;SDS011;5809;53.262;10.408;2022-10-16T14:15:56;2.78;;;1.30;;
11504;SDS011;5809;53.262;10.408;2022-10-16T14:18:25;1.80;;;1.10;;
11504;SDS011;5809;53.262;10.408;2022-10-16T14:20:54;4.00;;;1.30;;
11504;SDS011;5809;53.262;10.408;2022-10-16T14:23:29;2.45;;;0.90;;
11504;SDS011;5809;53.262;10.408;2022-10-16T14:26:05;2.55;;;1.20;;
11504;SDS011;5809;53.262;10.408;2022-10-16T14:28:38;5.60;;;1.13;;
11504;SDS011;5809;53.262;10.408;2022-10-16T14:31:20;2.20;;;0.98;;
11504;SDS011;5809;53.262;10.408;2022-10-16T14:33:53;5.53;;;1.20;;
11504;SDS011;5809;53.262;10.408;2022-10-16T14:36:20;4.45;;;1.08;;
11504;SDS011;5809;53.262;10.408;2022-10-16T14:38:49;4.00;;;1.13;;
11504;SDS011;5809;53.262;10.408;2022-10-16T14:41:23;4.00;;;1.00;;
11504;SDS011;5809;53.262;10.408;2022-10-16T14:43:50;5.63;;;1.65;;
11504;SDS011;5809;53.262;10.408;2022-10-16T14:46:21;3.97;;;1.38;;
11504;SDS011;5809;53.262;10.408;2022-10-16T14:48:57;3.42;;;1.35;;
11504;SDS011;5809;53.262;10.408;2022-10-16T14:51:26;4.07;;;1.55;;
11504;SDS011;5809;53.262;10.408;2022-10-16T14:53:53;2.40;;;1.02;;
11504;SDS011;5809;53.262;10.408;2022-10-16T14:56:21;2.72;;;1.13;;
11504;SDS011;5809;53.262;10.408;2022-10-16T14:58:49;4.90;;;1.20;;
11504;SDS011;5809;53.262;10.408;2022-10-16T15:01:17;4.05;;;1.17;;
11504;SDS011;5809;53.262;10.408;2022-10-16T15:03:46;6.15;;;1.05;;
11504;SDS011;5809;53.262;10.408;2022-10-16T15:06:13;3.28;;;1.20;;
11504;SDS011;5809;53.262;10.408;2022-10-16T15:08:41;2.65;;;1.30;;
11504;SDS011;5809;53.262;10.408;2022-10-16T15:11:09;4.70;;;1.10;;
11504;SDS011;5809;53.262;10.408;2022-10-16T15:13:38;4.38;;;1.33;;
11504;SDS011;5809;53.262;10.408;2022-10-16T15:16:07;3.83;;;1.38;;
11504;SDS011;5809;53.262;10.408;2022-10-16T15:18:36;4.15;;;1.40;;
11504;SDS011;5809;53.262;10.408;2022-10-16T15:21:04;3.35;;;1.35;;